sensor_id;sensor_type;location;lat;lon;timestamp;P1;durP1;ratioP1;P2;durP2;ratioP2
23394;SDS011;11870;53.084;18.206;2022-10-01T00:01:58;41.38;;;22.63;;
23394;SDS011;11870;53.084;18.206;2022-10-01T00:04:25;50.67;;;26.30;;
23394;SDS011;11870;53.084;18.206;2022-10-01T00:06:51;47.20;;;23.95;;
23394;SDS011;11870;53.084;18.206;2022-10-01T00:09:17;51.15;;;25.67;;
23394;SDS011;11870;53.084;18.206;2022-10-01T00:11:43;42.85;;;22.77;;
23394;SDS011;11870;53.084;18.206;2022-10-01T00:14:09;43.30;;;23.65;;
23394;SDS011;11870;53.084;18.206;2022-10-01T00:16:35;42.42;;;21.40;;
23394;SDS011;11870;53.084;18.206;2022-10-01T00:19:01;39.95;;;20.73;;
23394;SDS011;11870;53.084;18.206;2022-10-01T00:21:28;40.92;;;20.25;;
23394;SDS011;11870;53.084;18.206;2022-10-01T00:24:00;39.22;;;21.17;;
23394;SDS011;11870;53.084;18.206;2022-10-01T00:26:30;44.05;;;22.52;;
23394;SDS011;11870;53.084;18.206;2022-10-01T00:28:58;43.97;;;21.73;;
23394;SDS011;11870;53.084;18.206;2022-10-01T00:31:26;84.15;;;25.40;;
23394;SDS011;11870;53.084;18.206;2022-10-01T00:33:53;50.78;;;25.52;;
23394;SDS011;11870;53.084;18.206;2022-10-01T00:36:20;44.20;;;22.70;;
23394;SDS011;11870;53.084;18.206;2022-10-01T00:38:46;47.05;;;23.75;;
23394;SDS011;11870;53.084;18.206;2022-10-01T00:41:13;46.10;;;23.08;;
23394;SDS011;11870;53.084;18.206;2022-10-01T00:43:44;41.78;;;21.38;;
23394;SDS011;11870;53.084;18.206;2022-10-01T00:48:59;40.67;;;21.65;;
23394;SDS011;11870;53.084;18.206;2022-10-01T00:51:29;46.85;;;22.15;;
23394;SDS011;11870;53.084;18.206;2022-10-01T00:54:01;43.80;;;22.08;;
23394;SDS011;11870;53.084;18.206;2022-10-01T00:56:32;45.00;;;23.70;;
23394;SDS011;11870;53.084;18.206;2022-10-01T00:58:58;44.40;;;22.08;;
23394;SDS011;11870;53.084;18.206;2022-10-01T01:01:25;49.95;;;24.15;;
23394;SDS011;11870;53.084;18.206;2022-10-01T01:03:51;43.83;;;22.73;;
23394;SDS011;11870;53.084;18.206;2022-10-01T01:06:17;44.25;;;22.50;;
23394;SDS011;11870;53.084;18.206;2022-10-01T01:08:43;42.67;;;21.50;;
23394;SDS011;11870;53.084;18.206;2022-10-01T01:11:12;42.08;;;20.58;;
23394;SDS011;11870;53.084;18.206;2022-10-01T01:16:26;42.10;;;21.05;;
23394;SDS011;11870;53.084;18.206;2022-10-01T01:19:14;46.92;;;22.85;;
23394;SDS011;11870;53.084;18.206;2022-10-01T01:21:59;47.63;;;23.73;;
23394;SDS011;11870;53.084;18.206;2022-10-01T01:30:09;45.28;;;22.17;;
23394;SDS011;11870;53.084;18.206;2022-10-01T01:35:24;43.58;;;22.88;;
23394;SDS011;11870;53.084;18.206;2022-10-01T01:38:12;46.33;;;24.20;;
23394;SDS011;11870;53.084;18.206;2022-10-01T01:40:42;51.75;;;23.73;;
23394;SDS011;11870;53.084;18.206;2022-10-01T01:43:12;50.22;;;23.05;;
23394;SDS011;11870;53.084;18.206;2022-10-01T01:45:43;45.45;;;23.00;;
23394;SDS011;11870;53.084;18.206;2022-10-01T01:48:09;55.33;;;27.45;;
23394;SDS011;11870;53.084;18.206;2022-10-01T01:50:47;52.38;;;26.20;;
23394;SDS011;11870;53.084;18.206;2022-10-01T01:53:17;62.75;;;27.52;;
23394;SDS011;11870;53.084;18.206;2022-10-01T01:55:44;54.83;;;26.25;;
23394;SDS011;11870;53.084;18.206;2022-10-01T01:58:14;53.10;;;24.80;;
23394;SDS011;11870;53.084;18.206;2022-10-01T02:00:44;51.03;;;25.00;;
23394;SDS011;11870;53.084;18.206;2022-10-01T02:03:17;50.80;;;24.13;;
23394;SDS011;11870;53.084;18.206;2022-10-01T02:05:52;52.97;;;25.48;;
23394;SDS011;11870;53.084;18.206;2022-10-01T02:11:15;51.72;;;24.95;;
23394;SDS011;11870;53.084;18.206;2022-10-01T02:14:03;57.10;;;26.77;;
23394;SDS011;11870;53.084;18.206;2022-10-01T02:16:49;54.70;;;27.50;;
23394;SDS011;11870;53.084;18.206;2022-10-01T02:22:15;53.95;;;27.95;;
23394;SDS011;11870;53.084;18.206;2022-10-01T02:24:46;60.67;;;28.88;;
23394;SDS011;11870;53.084;18.206;2022-10-01T02:27:34;52.55;;;26.92;;
23394;SDS011;11870;53.084;18.206;2022-10-01T02:30:05;56.63;;;27.08;;
23394;SDS011;11870;53.084;18.206;2022-10-01T02:32:34;52.92;;;26.98;;
23394;SDS011;11870;53.084;18.206;2022-10-01T02:35:06;50.72;;;25.90;;
23394;SDS011;11870;53.084;18.206;2022-10-01T02:37:35;56.78;;;26.98;;
23394;SDS011;11870;53.084;18.206;2022-10-01T02:40:03;46.10;;;23.70;;
23394;SDS011;11870;53.084;18.206;2022-10-01T02:42:32;48.90;;;24.83;;
23394;SDS011;11870;53.084;18.206;2022-10-01T02:45:01;52.45;;;25.40;;
23394;SDS011;11870;53.084;18.206;2022-10-01T02:47:36;47.45;;;23.38;;
23394;SDS011;11870;53.084;18.206;2022-10-01T02:50:06;54.58;;;25.50;;
23394;SDS011;11870;53.084;18.206;2022-10-01T02:55:25;44.50;;;23.15;;
23394;SDS011;11870;53.084;18.206;2022-10-01T02:57:55;47.90;;;23.83;;
23394;SDS011;11870;53.084;18.206;2022-10-01T03:00:22;50.35;;;23.65;;
23394;SDS011;11870;53.084;18.206;2022-10-01T03:02:49;46.78;;;23.33;;
23394;SDS011;11870;53.084;18.206;2022-10-01T03:05:15;59.55;;;28.17;;
23394;SDS011;11870;53.084;18.206;2022-10-01T03:07:42;51.30;;;24.00;;
23394;SDS011;11870;53.084;18.206;2022-10-01T03:10:09;53.00;;;27.13;;
23394;SDS011;11870;53.084;18.206;2022-10-01T03:12:35;53.28;;;25.58;;
23394;SDS011;11870;53.084;18.206;2022-10-01T03:15:02;46.92;;;24.95;;
23394;SDS011;11870;53.084;18.206;2022-10-01T03:17:29;53.88;;;26.20;;
23394;SDS011;11870;53.084;18.206;2022-10-01T03:19:54;57.38;;;27.20;;
23394;SDS011;11870;53.084;18.206;2022-10-01T03:22:21;53.67;;;26.13;;
23394;SDS011;11870;53.084;18.206;2022-10-01T03:24:51;55.55;;;27.88;;
23394;SDS011;11870;53.084;18.206;2022-10-01T03:27:17;60.75;;;30.08;;
23394;SDS011;11870;53.084;18.206;2022-10-01T03:29:44;57.17;;;28.85;;
23394;SDS011;11870;53.084;18.206;2022-10-01T03:32:11;56.58;;;28.45;;
23394;SDS011;11870;53.084;18.206;2022-10-01T03:34:38;70.75;;;30.70;;
23394;SDS011;11870;53.084;18.206;2022-10-01T03:37:04;51.20;;;27.60;;
23394;SDS011;11870;53.084;18.206;2022-10-01T03:39:30;64.57;;;29.65;;
23394;SDS011;11870;53.084;18.206;2022-10-01T03:41:56;66.35;;;30.73;;
23394;SDS011;11870;53.084;18.206;2022-10-01T03:44:22;65.85;;;31.20;;
23394;SDS011;11870;53.084;18.206;2022-10-01T03:46:48;64.68;;;30.08;;
23394;SDS011;11870;53.084;18.206;2022-10-01T03:49:14;62.10;;;30.08;;
23394;SDS011;11870;53.084;18.206;2022-10-01T03:51:40;64.60;;;30.60;;
23394;SDS011;11870;53.084;18.206;2022-10-01T03:54:06;63.28;;;31.17;;
23394;SDS011;11870;53.084;18.206;2022-10-01T03:56:33;65.93;;;31.20;;
23394;SDS011;11870;53.084;18.206;2022-10-01T03:59:00;67.07;;;30.85;;
23394;SDS011;11870;53.084;18.206;2022-10-01T04:01:26;67.22;;;31.80;;
23394;SDS011;11870;53.084;18.206;2022-10-01T04:03:52;63.40;;;29.67;;
23394;SDS011;11870;53.084;18.206;2022-10-01T04:06:18;57.83;;;29.10;;
23394;SDS011;11870;53.084;18.206;2022-10-01T04:08:44;56.85;;;27.80;;
23394;SDS011;11870;53.084;18.206;2022-10-01T04:11:10;58.10;;;27.30;;
23394;SDS011;11870;53.084;18.206;2022-10-01T04:13:36;52.63;;;26.70;;
23394;SDS011;11870;53.084;18.206;2022-10-01T04:16:03;54.40;;;25.95;;
23394;SDS011;11870;53.084;18.206;2022-10-01T04:18:31;109.22;;;40.08;;
23394;SDS011;11870;53.084;18.206;2022-10-01T04:20:57;74.88;;;34.75;;
23394;SDS011;11870;53.084;18.206;2022-10-01T04:23:24;70.38;;;34.15;;
23394;SDS011;11870;53.084;18.206;2022-10-01T04:25:50;58.85;;;30.85;;
23394;SDS011;11870;53.084;18.206;2022-10-01T04:28:16;58.35;;;30.58;;
23394;SDS011;11870;53.084;18.206;2022-10-01T04:30:43;137.70;;;39.13;;
23394;SDS011;11870;53.084;18.206;2022-10-01T04:33:13;59.45;;;31.17;;
23394;SDS011;11870;53.084;18.206;2022-10-01T04:35:41;64.07;;;31.45;;
23394;SDS011;11870;53.084;18.206;2022-10-01T04:38:12;190.88;;;38.97;;
23394;SDS011;11870;53.084;18.206;2022-10-01T04:40:40;58.58;;;28.48;;
23394;SDS011;11870;53.084;18.206;2022-10-01T04:43:06;65.35;;;29.77;;
23394;SDS011;11870;53.084;18.206;2022-10-01T04:45:34;69.57;;;31.52;;
23394;SDS011;11870;53.084;18.206;2022-10-01T04:48:01;68.57;;;31.92;;
23394;SDS011;11870;53.084;18.206;2022-10-01T04:50:27;65.88;;;31.30;;
23394;SDS011;11870;53.084;18.206;2022-10-01T04:52:53;63.75;;;30.77;;
23394;SDS011;11870;53.084;18.206;2022-10-01T04:55:20;70.90;;;33.15;;
23394;SDS011;11870;53.084;18.206;2022-10-01T04:57:47;68.70;;;33.38;;
23394;SDS011;11870;53.084;18.206;2022-10-01T05:00:18;76.15;;;32.47;;
23394;SDS011;11870;53.084;18.206;2022-10-01T05:02:47;67.32;;;31.38;;
23394;SDS011;11870;53.084;18.206;2022-10-01T05:05:15;65.40;;;31.80;;
23394;SDS011;11870;53.084;18.206;2022-10-01T05:07:43;74.68;;;33.67;;
23394;SDS011;11870;53.084;18.206;2022-10-01T05:10:10;74.40;;;34.80;;
23394;SDS011;11870;53.084;18.206;2022-10-01T05:12:38;84.28;;;38.55;;
23394;SDS011;11870;53.084;18.206;2022-10-01T05:15:04;81.97;;;36.88;;
23394;SDS011;11870;53.084;18.206;2022-10-01T05:17:30;76.00;;;36.60;;
23394;SDS011;11870;53.084;18.206;2022-10-01T05:19:59;83.65;;;38.00;;
23394;SDS011;11870;53.084;18.206;2022-10-01T05:22:25;88.97;;;38.63;;
23394;SDS011;11870;53.084;18.206;2022-10-01T05:24:51;80.43;;;37.78;;
23394;SDS011;11870;53.084;18.206;2022-10-01T05:27:18;123.53;;;42.53;;
23394;SDS011;11870;53.084;18.206;2022-10-01T05:29:44;149.88;;;49.75;;
23394;SDS011;11870;53.084;18.206;2022-10-01T05:32:11;195.55;;;52.42;;
23394;SDS011;11870;53.084;18.206;2022-10-01T05:34:37;119.22;;;49.25;;
23394;SDS011;11870;53.084;18.206;2022-10-01T05:37:03;798.55;;;99.38;;
23394;SDS011;11870;53.084;18.206;2022-10-01T05:39:30;1215.50;;;126.35;;
23394;SDS011;11870;53.084;18.206;2022-10-01T05:41:57;499.75;;;82.45;;
23394;SDS011;11870;53.084;18.206;2022-10-01T05:44:23;1999.90;;;187.35;;
23394;SDS011;11870;53.084;18.206;2022-10-01T05:46:51;150.18;;;61.05;;
23394;SDS011;11870;53.084;18.206;2022-10-01T05:49:17;286.02;;;69.45;;
23394;SDS011;11870;53.084;18.206;2022-10-01T05:51:44;136.98;;;58.78;;
23394;SDS011;11870;53.084;18.206;2022-10-01T05:54:11;151.13;;;61.85;;
23394;SDS011;11870;53.084;18.206;2022-10-01T05:56:38;149.52;;;62.78;;
23394;SDS011;11870;53.084;18.206;2022-10-01T05:59:04;148.05;;;64.47;;
23394;SDS011;11870;53.084;18.206;2022-10-01T06:01:30;128.35;;;61.00;;
23394;SDS011;11870;53.084;18.206;2022-10-01T06:03:57;128.13;;;60.63;;
23394;SDS011;11870;53.084;18.206;2022-10-01T06:06:23;127.95;;;60.33;;
23394;SDS011;11870;53.084;18.206;2022-10-01T06:08:50;99.07;;;52.92;;
23394;SDS011;11870;53.084;18.206;2022-10-01T06:11:17;69.55;;;40.05;;
23394;SDS011;11870;53.084;18.206;2022-10-01T06:13:44;47.60;;;29.60;;
23394;SDS011;11870;53.084;18.206;2022-10-01T06:16:13;42.80;;;25.45;;
23394;SDS011;11870;53.084;18.206;2022-10-01T06:18:40;37.28;;;22.73;;
23394;SDS011;11870;53.084;18.206;2022-10-01T06:21:07;33.20;;;22.10;;
23394;SDS011;11870;53.084;18.206;2022-10-01T06:23:34;34.42;;;21.95;;
23394;SDS011;11870;53.084;18.206;2022-10-01T06:26:01;33.53;;;21.02;;
23394;SDS011;11870;53.084;18.206;2022-10-01T06:28:33;31.40;;;20.92;;
23394;SDS011;11870;53.084;18.206;2022-10-01T06:31:02;33.78;;;20.52;;
23394;SDS011;11870;53.084;18.206;2022-10-01T06:33:28;30.05;;;19.90;;
23394;SDS011;11870;53.084;18.206;2022-10-01T06:35:54;28.73;;;19.77;;
23394;SDS011;11870;53.084;18.206;2022-10-01T06:38:20;29.17;;;19.90;;
23394;SDS011;11870;53.084;18.206;2022-10-01T06:40:54;26.80;;;18.20;;
23394;SDS011;11870;53.084;18.206;2022-10-01T06:43:22;29.30;;;19.60;;
23394;SDS011;11870;53.084;18.206;2022-10-01T06:45:49;26.83;;;18.05;;
23394;SDS011;11870;53.084;18.206;2022-10-01T06:48:15;27.15;;;18.33;;
23394;SDS011;11870;53.084;18.206;2022-10-01T06:50:44;27.95;;;18.58;;
23394;SDS011;11870;53.084;18.206;2022-10-01T06:53:12;27.30;;;17.77;;
23394;SDS011;11870;53.084;18.206;2022-10-01T06:55:39;26.75;;;18.27;;
23394;SDS011;11870;53.084;18.206;2022-10-01T06:58:05;27.65;;;18.42;;
23394;SDS011;11870;53.084;18.206;2022-10-01T07:00:35;28.90;;;18.50;;
23394;SDS011;11870;53.084;18.206;2022-10-01T07:03:04;27.30;;;18.92;;
23394;SDS011;11870;53.084;18.206;2022-10-01T07:05:35;27.20;;;18.75;;
23394;SDS011;11870;53.084;18.206;2022-10-01T07:08:02;29.23;;;20.70;;
23394;SDS011;11870;53.084;18.206;2022-10-01T07:10:29;25.05;;;17.73;;
23394;SDS011;11870;53.084;18.206;2022-10-01T07:13:04;27.52;;;18.30;;
23394;SDS011;11870;53.084;18.206;2022-10-01T07:15:33;28.80;;;18.45;;
23394;SDS011;11870;53.084;18.206;2022-10-01T07:17:59;23.60;;;17.38;;
23394;SDS011;11870;53.084;18.206;2022-10-01T07:20:25;24.73;;;17.00;;
23394;SDS011;11870;53.084;18.206;2022-10-01T07:22:55;23.38;;;17.15;;
23394;SDS011;11870;53.084;18.206;2022-10-01T07:25:23;27.17;;;16.60;;
23394;SDS011;11870;53.084;18.206;2022-10-01T07:27:53;24.15;;;17.55;;
23394;SDS011;11870;53.084;18.206;2022-10-01T07:30:24;23.88;;;16.48;;
23394;SDS011;11870;53.084;18.206;2022-10-01T07:32:50;23.42;;;16.95;;
23394;SDS011;11870;53.084;18.206;2022-10-01T07:35:16;24.30;;;17.33;;
23394;SDS011;11870;53.084;18.206;2022-10-01T07:37:46;23.00;;;17.23;;
23394;SDS011;11870;53.084;18.206;2022-10-01T07:40:12;25.80;;;17.40;;
23394;SDS011;11870;53.084;18.206;2022-10-01T07:42:41;20.75;;;16.50;;
23394;SDS011;11870;53.084;18.206;2022-10-01T07:45:07;23.20;;;16.80;;
23394;SDS011;11870;53.084;18.206;2022-10-01T07:47:34;22.30;;;17.10;;
23394;SDS011;11870;53.084;18.206;2022-10-01T07:49:59;22.80;;;16.88;;
23394;SDS011;11870;53.084;18.206;2022-10-01T07:52:26;24.50;;;17.52;;
23394;SDS011;11870;53.084;18.206;2022-10-01T07:54:52;22.48;;;17.20;;
23394;SDS011;11870;53.084;18.206;2022-10-01T07:57:18;20.73;;;16.40;;
23394;SDS011;11870;53.084;18.206;2022-10-01T07:59:43;20.80;;;16.08;;
23394;SDS011;11870;53.084;18.206;2022-10-01T08:02:13;23.17;;;16.85;;
23394;SDS011;11870;53.084;18.206;2022-10-01T08:04:40;22.80;;;16.45;;
23394;SDS011;11870;53.084;18.206;2022-10-01T08:07:25;21.50;;;16.48;;
23394;SDS011;11870;53.084;18.206;2022-10-01T08:09:51;20.10;;;15.65;;
23394;SDS011;11870;53.084;18.206;2022-10-01T08:12:17;23.00;;;16.40;;
23394;SDS011;11870;53.084;18.206;2022-10-01T08:14:44;21.05;;;15.95;;
23394;SDS011;11870;53.084;18.206;2022-10-01T08:17:12;20.58;;;16.17;;
23394;SDS011;11870;53.084;18.206;2022-10-01T08:19:38;21.02;;;15.65;;
23394;SDS011;11870;53.084;18.206;2022-10-01T08:22:04;22.45;;;17.27;;
23394;SDS011;11870;53.084;18.206;2022-10-01T08:24:31;21.08;;;17.00;;
23394;SDS011;11870;53.084;18.206;2022-10-01T08:26:59;21.05;;;15.50;;
23394;SDS011;11870;53.084;18.206;2022-10-01T08:29:25;17.88;;;14.02;;
23394;SDS011;11870;53.084;18.206;2022-10-01T08:31:51;19.63;;;14.45;;
23394;SDS011;11870;53.084;18.206;2022-10-01T08:34:17;21.08;;;15.13;;
23394;SDS011;11870;53.084;18.206;2022-10-01T08:36:43;19.45;;;15.18;;
23394;SDS011;11870;53.084;18.206;2022-10-01T08:39:10;21.70;;;15.32;;
23394;SDS011;11870;53.084;18.206;2022-10-01T08:41:47;21.05;;;15.57;;
23394;SDS011;11870;53.084;18.206;2022-10-01T08:44:38;18.63;;;14.15;;
23394;SDS011;11870;53.084;18.206;2022-10-01T08:50:13;19.23;;;12.77;;
23394;SDS011;11870;53.084;18.206;2022-10-01T08:53:10;18.83;;;13.73;;
23394;SDS011;11870;53.084;18.206;2022-10-01T08:55:43;18.00;;;14.00;;
23394;SDS011;11870;53.084;18.206;2022-10-01T08:58:15;21.20;;;15.60;;
23394;SDS011;11870;53.084;18.206;2022-10-01T09:00:47;15.88;;;12.70;;
23394;SDS011;11870;53.084;18.206;2022-10-01T09:03:14;14.85;;;12.50;;
23394;SDS011;11870;53.084;18.206;2022-10-01T09:05:46;19.35;;;13.63;;
23394;SDS011;11870;53.084;18.206;2022-10-01T09:08:36;15.63;;;12.40;;
23394;SDS011;11870;53.084;18.206;2022-10-01T09:11:31;14.82;;;12.15;;
23394;SDS011;11870;53.084;18.206;2022-10-01T09:16:42;13.05;;;11.18;;
23394;SDS011;11870;53.084;18.206;2022-10-01T09:19:26;13.50;;;10.90;;
23394;SDS011;11870;53.084;18.206;2022-10-01T09:24:59;13.63;;;11.40;;
23394;SDS011;11870;53.084;18.206;2022-10-01T09:27:33;13.13;;;10.73;;
23394;SDS011;11870;53.084;18.206;2022-10-01T09:30:06;12.77;;;9.88;;
23394;SDS011;11870;53.084;18.206;2022-10-01T09:32:48;13.80;;;10.90;;
23394;SDS011;11870;53.084;18.206;2022-10-01T09:40:54;14.00;;;10.68;;
23394;SDS011;11870;53.084;18.206;2022-10-01T09:43:21;13.05;;;10.40;;
23394;SDS011;11870;53.084;18.206;2022-10-01T09:45:49;9.80;;;8.70;;
23394;SDS011;11870;53.084;18.206;2022-10-01T09:48:26;11.25;;;9.52;;
23394;SDS011;11870;53.084;18.206;2022-10-01T09:51:20;9.80;;;8.75;;
23394;SDS011;11870;53.084;18.206;2022-10-01T09:57:10;12.27;;;9.10;;
23394;SDS011;11870;53.084;18.206;2022-10-01T10:02:31;10.93;;;9.13;;
23394;SDS011;11870;53.084;18.206;2022-10-01T10:05:00;13.75;;;10.38;;
23394;SDS011;11870;53.084;18.206;2022-10-01T10:07:30;13.73;;;9.68;;
23394;SDS011;11870;53.084;18.206;2022-10-01T10:10:06;12.45;;;9.68;;
23394;SDS011;11870;53.084;18.206;2022-10-01T10:12:44;15.27;;;11.13;;
23394;SDS011;11870;53.084;18.206;2022-10-01T10:15:15;13.93;;;10.32;;
23394;SDS011;11870;53.084;18.206;2022-10-01T10:17:45;16.98;;;11.30;;
23394;SDS011;11870;53.084;18.206;2022-10-01T10:20:32;14.50;;;10.70;;
23394;SDS011;11870;53.084;18.206;2022-10-01T10:23:04;14.07;;;11.07;;
23394;SDS011;11870;53.084;18.206;2022-10-01T10:25:38;14.60;;;10.70;;
23394;SDS011;11870;53.084;18.206;2022-10-01T10:28:14;15.85;;;11.50;;
23394;SDS011;11870;53.084;18.206;2022-10-01T10:30:44;16.15;;;12.32;;
23394;SDS011;11870;53.084;18.206;2022-10-01T10:33:10;16.40;;;12.00;;
23394;SDS011;11870;53.084;18.206;2022-10-01T10:35:39;17.55;;;11.52;;
23394;SDS011;11870;53.084;18.206;2022-10-01T10:38:05;19.80;;;13.57;;
23394;SDS011;11870;53.084;18.206;2022-10-01T10:40:42;18.88;;;13.35;;
23394;SDS011;11870;53.084;18.206;2022-10-01T10:43:20;21.45;;;14.23;;
23394;SDS011;11870;53.084;18.206;2022-10-01T10:45:50;23.00;;;14.10;;
23394;SDS011;11870;53.084;18.206;2022-10-01T10:48:21;20.85;;;13.95;;
23394;SDS011;11870;53.084;18.206;2022-10-01T10:51:00;19.02;;;12.93;;
23394;SDS011;11870;53.084;18.206;2022-10-01T10:53:29;21.63;;;13.65;;
23394;SDS011;11870;53.084;18.206;2022-10-01T10:56:22;19.92;;;13.13;;
23394;SDS011;11870;53.084;18.206;2022-10-01T10:58:50;24.38;;;13.85;;
23394;SDS011;11870;53.084;18.206;2022-10-01T11:01:27;21.45;;;14.30;;
23394;SDS011;11870;53.084;18.206;2022-10-01T11:03:55;22.42;;;14.13;;
23394;SDS011;11870;53.084;18.206;2022-10-01T11:06:24;18.85;;;13.68;;
23394;SDS011;11870;53.084;18.206;2022-10-01T11:09:24;21.67;;;14.82;;
23394;SDS011;11870;53.084;18.206;2022-10-01T11:11:52;21.17;;;13.60;;
23394;SDS011;11870;53.084;18.206;2022-10-01T11:17:10;21.40;;;13.85;;
23394;SDS011;11870;53.084;18.206;2022-10-01T11:30:21;21.10;;;13.93;;
23394;SDS011;11870;53.084;18.206;2022-10-01T11:39:13;19.95;;;12.52;;
23394;SDS011;11870;53.084;18.206;2022-10-01T11:41:44;21.50;;;12.95;;
23394;SDS011;11870;53.084;18.206;2022-10-01T11:44:23;20.83;;;12.52;;
23394;SDS011;11870;53.084;18.206;2022-10-01T11:47:10;20.17;;;12.65;;
23394;SDS011;11870;53.084;18.206;2022-10-01T11:49:40;23.50;;;12.68;;
23394;SDS011;11870;53.084;18.206;2022-10-01T11:52:18;21.05;;;12.68;;
23394;SDS011;11870;53.084;18.206;2022-10-01T11:55:08;19.70;;;12.10;;
23394;SDS011;11870;53.084;18.206;2022-10-01T11:57:56;19.88;;;12.75;;
23394;SDS011;11870;53.084;18.206;2022-10-01T12:00:50;23.70;;;13.23;;
23394;SDS011;11870;53.084;18.206;2022-10-01T12:03:23;20.45;;;12.35;;
23394;SDS011;11870;53.084;18.206;2022-10-01T12:05:57;20.75;;;12.82;;
23394;SDS011;11870;53.084;18.206;2022-10-01T12:08:25;19.55;;;12.55;;
23394;SDS011;11870;53.084;18.206;2022-10-01T12:13:38;20.80;;;12.90;;
23394;SDS011;11870;53.084;18.206;2022-10-01T12:16:13;19.73;;;12.88;;
23394;SDS011;11870;53.084;18.206;2022-10-01T12:19:24;21.77;;;13.35;;
23394;SDS011;11870;53.084;18.206;2022-10-01T12:24:41;21.48;;;13.00;;
23394;SDS011;11870;53.084;18.206;2022-10-01T12:38:32;20.27;;;12.60;;
23394;SDS011;11870;53.084;18.206;2022-10-01T12:49:52;21.23;;;12.60;;
23394;SDS011;11870;53.084;18.206;2022-10-01T12:55:48;23.80;;;13.73;;
23394;SDS011;11870;53.084;18.206;2022-10-01T12:58:34;22.98;;;12.70;;
23394;SDS011;11870;53.084;18.206;2022-10-01T13:15:20;20.30;;;12.05;;
23394;SDS011;11870;53.084;18.206;2022-10-01T13:18:38;21.50;;;12.45;;
23394;SDS011;11870;53.084;18.206;2022-10-01T13:20:48;22.48;;;12.65;;
23394;SDS011;11870;53.084;18.206;2022-10-01T13:23:49;23.83;;;13.35;;
23394;SDS011;11870;53.084;18.206;2022-10-01T13:31:57;21.52;;;12.90;;
23394;SDS011;11870;53.084;18.206;2022-10-01T13:37:09;19.20;;;11.63;;
23394;SDS011;11870;53.084;18.206;2022-10-01T13:39:57;23.83;;;12.57;;
23394;SDS011;11870;53.084;18.206;2022-10-01T13:42:24;19.08;;;12.38;;
23394;SDS011;11870;53.084;18.206;2022-10-01T13:44:59;20.52;;;12.27;;
23394;SDS011;11870;53.084;18.206;2022-10-01T13:47:31;19.80;;;11.18;;
23394;SDS011;11870;53.084;18.206;2022-10-01T13:50:01;20.30;;;12.07;;
23394;SDS011;11870;53.084;18.206;2022-10-01T13:52:31;20.10;;;12.25;;
23394;SDS011;11870;53.084;18.206;2022-10-01T13:54:58;18.08;;;11.13;;
23394;SDS011;11870;53.084;18.206;2022-10-01T14:00:20;20.05;;;11.00;;
23394;SDS011;11870;53.084;18.206;2022-10-01T14:03:01;17.20;;;10.95;;
23394;SDS011;11870;53.084;18.206;2022-10-01T14:05:39;17.00;;;11.10;;
23394;SDS011;11870;53.084;18.206;2022-10-01T14:10:49;17.83;;;11.00;;
23394;SDS011;11870;53.084;18.206;2022-10-01T14:13:44;17.30;;;11.00;;
23394;SDS011;11870;53.084;18.206;2022-10-01T14:16:34;18.25;;;11.27;;
23394;SDS011;11870;53.084;18.206;2022-10-01T14:19:09;19.75;;;10.80;;
23394;SDS011;11870;53.084;18.206;2022-10-01T14:27:04;18.63;;;11.57;;
23394;SDS011;11870;53.084;18.206;2022-10-01T14:32:30;20.65;;;12.18;;
23394;SDS011;11870;53.084;18.206;2022-10-01T14:37:36;19.17;;;11.60;;
23394;SDS011;11870;53.084;18.206;2022-10-01T14:42:42;20.20;;;12.38;;
23394;SDS011;11870;53.084;18.206;2022-10-01T14:45:17;21.55;;;13.13;;
23394;SDS011;11870;53.084;18.206;2022-10-01T14:47:44;21.80;;;13.23;;
23394;SDS011;11870;53.084;18.206;2022-10-01T14:50:18;23.13;;;13.35;;
23394;SDS011;11870;53.084;18.206;2022-10-01T14:52:47;21.52;;;12.73;;
23394;SDS011;11870;53.084;18.206;2022-10-01T14:55:17;21.13;;;12.80;;
23394;SDS011;11870;53.084;18.206;2022-10-01T14:57:51;22.45;;;13.73;;
23394;SDS011;11870;53.084;18.206;2022-10-01T15:00:24;22.85;;;12.63;;
23394;SDS011;11870;53.084;18.206;2022-10-01T15:03:11;26.17;;;14.50;;
23394;SDS011;11870;53.084;18.206;2022-10-01T15:05:40;22.05;;;14.18;;
23394;SDS011;11870;53.084;18.206;2022-10-01T15:08:11;23.77;;;15.30;;
23394;SDS011;11870;53.084;18.206;2022-10-01T15:13:29;26.90;;;16.02;;
23394;SDS011;11870;53.084;18.206;2022-10-01T15:15:59;26.95;;;15.10;;
23394;SDS011;11870;53.084;18.206;2022-10-01T15:18:27;29.08;;;14.40;;
23394;SDS011;11870;53.084;18.206;2022-10-01T15:20:55;25.40;;;14.35;;
23394;SDS011;11870;53.084;18.206;2022-10-01T15:23:24;32.53;;;17.25;;
23394;SDS011;11870;53.084;18.206;2022-10-01T15:25:53;26.02;;;15.40;;
23394;SDS011;11870;53.084;18.206;2022-10-01T15:28:28;31.80;;;19.55;;
23394;SDS011;11870;53.084;18.206;2022-10-01T15:30:59;25.52;;;15.15;;
23394;SDS011;11870;53.084;18.206;2022-10-01T15:33:29;26.42;;;16.05;;
23394;SDS011;11870;53.084;18.206;2022-10-01T15:35:57;29.75;;;17.88;;
23394;SDS011;11870;53.084;18.206;2022-10-01T15:38:26;27.67;;;15.93;;
23394;SDS011;11870;53.084;18.206;2022-10-01T15:40:56;29.92;;;17.00;;
23394;SDS011;11870;53.084;18.206;2022-10-01T15:43:33;36.80;;;21.17;;
23394;SDS011;11870;53.084;18.206;2022-10-01T15:46:07;31.67;;;17.75;;
23394;SDS011;11870;53.084;18.206;2022-10-01T15:48:34;33.55;;;18.05;;
23394;SDS011;11870;53.084;18.206;2022-10-01T15:51:01;27.33;;;16.05;;
23394;SDS011;11870;53.084;18.206;2022-10-01T15:53:32;30.02;;;17.90;;
23394;SDS011;11870;53.084;18.206;2022-10-01T15:55:59;32.45;;;18.33;;
23394;SDS011;11870;53.084;18.206;2022-10-01T15:58:37;32.70;;;17.73;;
23394;SDS011;11870;53.084;18.206;2022-10-01T16:01:28;30.52;;;15.65;;
23394;SDS011;11870;53.084;18.206;2022-10-01T16:04:06;31.42;;;15.90;;
23394;SDS011;11870;53.084;18.206;2022-10-01T16:06:41;30.15;;;16.80;;
23394;SDS011;11870;53.084;18.206;2022-10-01T16:09:19;35.40;;;17.42;;
23394;SDS011;11870;53.084;18.206;2022-10-01T16:11:50;33.65;;;18.30;;
23394;SDS011;11870;53.084;18.206;2022-10-01T16:19:42;29.70;;;17.00;;
23394;SDS011;11870;53.084;18.206;2022-10-01T16:22:19;32.88;;;17.70;;
23394;SDS011;11870;53.084;18.206;2022-10-01T16:29:55;29.58;;;17.15;;
23394;SDS011;11870;53.084;18.206;2022-10-01T16:32:30;27.88;;;16.38;;
23394;SDS011;11870;53.084;18.206;2022-10-01T16:37:42;33.33;;;16.85;;
23394;SDS011;11870;53.084;18.206;2022-10-01T16:40:08;31.70;;;16.58;;
23394;SDS011;11870;53.084;18.206;2022-10-01T16:42:35;30.52;;;16.13;;
23394;SDS011;11870;53.084;18.206;2022-10-01T16:45:02;27.75;;;16.48;;
23394;SDS011;11870;53.084;18.206;2022-10-01T16:47:29;30.95;;;18.42;;
23394;SDS011;11870;53.084;18.206;2022-10-01T16:49:55;21.70;;;11.63;;
23394;SDS011;11870;53.084;18.206;2022-10-01T16:52:21;9.55;;;5.90;;
23394;SDS011;11870;53.084;18.206;2022-10-01T16:54:47;6.07;;;4.05;;
23394;SDS011;11870;53.084;18.206;2022-10-01T16:57:13;9.45;;;4.80;;
23394;SDS011;11870;53.084;18.206;2022-10-01T16:59:41;8.43;;;3.60;;